Gonzales, California
Current Conditions -  °F | °C
As of 3:53 AM on Tuesday 27 Jan 2015 (Local Time) from KSNS Reporting Station
Overcast Overcast  
Wind Chill: 60°   Ceiling: 10000
Heat Index: 60°   Visibility: 10mi
Dew Point: 47°   Wind: 21mph
Humidity: 62%   Direction: 120°ESE
Pressure: 30.09"   Gusts: NA
Location:  36.51°N, 121.44°W
Report Text: KSNS 271153Z AUTO 12018KT 10SM OVC100 16/08 A3009 RMK AO2 SLP197 T01560083 10172 20128 53018
Loading
Personal Weather Stations






























Interactive Weather Map New forecast layout! Learn more

10-Day Weather Forecast

Advertisements
Track Severe Weather on mobile